createdAt,value
2018-12-16T00:02:35.254Z,22.13
2018-12-16T00:05:09.540Z,21.97
2018-12-16T00:07:40.488Z,20.40
2018-12-16T00:13:03.721Z,22.67
2018-12-16T00:15:39.859Z,23.10
2018-12-16T00:18:10.699Z,24.03
2018-12-16T00:20:44.216Z,22.80
2018-12-16T00:23:26.003Z,23.23
2018-12-16T00:28:49.719Z,22.27
2018-12-16T00:31:18.999Z,23.10
2018-12-16T00:36:42.833Z,24.93
2018-12-16T00:39:13.796Z,26.73
2018-12-16T00:47:35.517Z,24.80
2018-12-16T00:50:06.593Z,24.73
2018-12-16T00:52:40.130Z,22.93
2018-12-16T00:55:11.250Z,25.17
2018-12-16T00:57:44.604Z,23.03
2018-12-16T01:00:18.292Z,25.23
2018-12-16T01:02:48.683Z,28.10
2018-12-16T01:05:20.086Z,28.47
2018-12-16T01:07:49.033Z,25.60
2018-12-16T01:10:22.634Z,27.63
2018-12-16T01:12:53.018Z,29.63
2018-12-16T01:15:26.412Z,18.77
2018-12-16T01:20:55.119Z,28.97
2018-12-16T01:43:36.483Z,36.20
2018-12-16T01:49:03.060Z,30.23
2018-12-16T01:51:36.519Z,35.97
2018-12-16T01:57:04.822Z,32.67
2018-12-16T01:59:44.880Z,43.20
2018-12-16T02:08:04.952Z,27.70
2018-12-16T02:10:50.617Z,38.97
2018-12-16T02:13:24.086Z,34.70
2018-12-16T02:16:00.341Z,32.20
2018-12-16T02:21:28.244Z,39.40
2018-12-16T02:27:00.041Z,33.60
2018-12-16T02:29:30.832Z,35.20
2018-12-16T02:32:04.526Z,37.57
2018-12-16T02:34:38.209Z,37.23
2018-12-16T02:37:13.655Z,45.63
2018-12-16T02:39:47.433Z,35.67
2018-12-16T02:42:21.828Z,42.10
2018-12-16T02:44:52.783Z,43.87
2018-12-16T02:47:26.167Z,37.37
2018-12-16T02:49:55.146Z,35.27
2018-12-16T02:52:31.797Z,36.87
2018-12-16T02:55:18.508Z,37.37
2018-12-16T02:57:52.553Z,42.07
2018-12-16T03:03:21.685Z,24.87
2018-12-16T03:05:52.663Z,29.70
2018-12-16T03:08:28.036Z,36.77
2018-12-16T03:10:59.353Z,42.80
2018-12-16T03:13:33.100Z,35.37
2018-12-16T03:16:03.954Z,40.97
2018-12-16T03:18:34.386Z,45.17
2018-12-16T03:21:05.745Z,39.57
2018-12-16T03:23:39.208Z,42.37
2018-12-16T03:26:08.133Z,42.17
2018-12-16T03:31:46.698Z,28.53
2018-12-16T03:40:07.502Z,36.93
2018-12-16T03:42:44.671Z,37.03
2018-12-16T03:51:29.117Z,26.50
2018-12-16T03:54:04.397Z,30.00
2018-12-16T03:56:35.919Z,36.83
2018-12-16T03:59:15.206Z,34.43
2018-12-16T04:01:54.635Z,37.20
2018-12-16T04:04:26.118Z,35.77
2018-12-16T04:06:56.855Z,37.97
2018-12-16T04:09:31.168Z,39.60
2018-12-16T04:12:05.967Z,42.00
2018-12-16T04:14:48.945Z,34.23
2018-12-16T04:17:23.185Z,38.67
2018-12-16T04:23:04.127Z,29.33
2018-12-16T04:25:51.128Z,39.07
2018-12-16T04:28:22.106Z,43.03
2018-12-16T04:37:03.743Z,43.37
2018-12-16T04:39:34.465Z,35.43
2018-12-16T04:42:18.480Z,39.33
2018-12-16T04:44:49.737Z,40.40
2018-12-16T04:50:31.268Z,39.53
2018-12-16T04:58:56.359Z,43.43
2018-12-16T05:01:30.419Z,36.03
2018-12-16T05:06:53.595Z,38.50
2018-12-16T05:09:30.846Z,37.47
2018-12-16T05:14:59.548Z,37.83
2018-12-16T05:20:23.154Z,45.33
2018-12-16T05:25:52.776Z,39.60
2018-12-16T05:28:26.346Z,40.20
2018-12-16T05:31:00.021Z,37.90
2018-12-16T05:33:30.984Z,38.60
2018-12-16T05:36:05.675Z,41.53
2018-12-16T05:38:40.836Z,44.20
2018-12-16T05:41:09.810Z,46.50
2018-12-16T05:43:53.714Z,37.30
2018-12-16T05:52:39.902Z,42.07
2018-12-16T05:55:11.181Z,39.03
2018-12-16T05:57:44.808Z,55.10
2018-12-16T06:03:08.906Z,41.73
2018-12-16T06:05:53.462Z,45.67
2018-12-16T06:08:38.016Z,42.03
2018-12-16T06:11:09.326Z,45.77
2018-12-16T06:13:40.575Z,46.00
2018-12-16T06:16:14.617Z,49.30
2018-12-16T06:21:42.872Z,46.17
2018-12-16T06:24:17.577Z,55.17
2018-12-16T06:26:51.338Z,49.27
2018-12-16T06:32:18.170Z,53.23
2018-12-16T06:34:54.003Z,57.93
2018-12-16T06:40:22.323Z,53.80
2018-12-16T06:42:52.994Z,54.63
2018-12-16T06:45:25.846Z,52.33
2018-12-16T06:50:46.838Z,51.63
2018-12-16T06:59:14.527Z,56.20
2018-12-16T07:01:48.054Z,53.30
2018-12-16T07:04:29.444Z,59.07
2018-12-16T07:07:00.592Z,63.60
2018-12-16T07:12:24.262Z,47.90
2018-12-16T07:15:01.909Z,57.80
2018-12-16T07:17:35.446Z,56.83
2018-12-16T07:20:07.879Z,58.30
2018-12-16T07:22:38.859Z,55.27
2018-12-16T07:25:12.583Z,65.10
2018-12-16T07:27:48.000Z,68.47
2018-12-16T07:30:21.606Z,52.00
2018-12-16T07:32:57.399Z,70.47
2018-12-16T07:35:31.184Z,61.87
2018-12-16T07:38:02.843Z,55.33
2018-12-16T07:40:36.555Z,61.07
2018-12-16T07:49:01.506Z,62.10
2018-12-16T07:51:37.329Z,53.87
2018-12-16T07:54:08.176Z,62.63
2018-12-16T07:56:42.266Z,68.70
2018-12-16T07:59:23.902Z,82.20
2018-12-16T08:02:08.324Z,65.53
2018-12-16T08:04:39.511Z,64.90
2018-12-16T08:09:42.605Z,66.93
2018-12-16T08:12:15.831Z,67.47
2018-12-16T08:14:46.327Z,54.43
2018-12-16T08:17:19.704Z,65.33
2018-12-16T08:19:48.561Z,53.97
2018-12-16T08:22:38.507Z,63.57
2018-12-16T08:25:07.520Z,67.73
2018-12-16T08:27:44.766Z,64.90
2018-12-16T08:30:14.247Z,62.73
2018-12-16T08:32:41.707Z,67.00
2018-12-16T08:35:15.148Z,74.42
2018-12-16T08:40:43.863Z,62.47
2018-12-16T08:43:12.456Z,70.50
2018-12-16T08:45:47.777Z,64.58
2018-12-16T08:48:21.486Z,64.77
2018-12-16T08:50:50.512Z,70.37
2018-12-16T08:53:24.844Z,72.43
2018-12-16T08:55:59.027Z,72.63
2018-12-16T08:58:30.889Z,80.53
2018-12-16T09:01:01.770Z,76.03
2018-12-16T09:03:44.641Z,77.30
2018-12-16T09:06:17.981Z,73.10
2018-12-16T09:08:59.167Z,75.47
2018-12-16T09:11:32.937Z,77.33
2018-12-16T09:14:10.505Z,72.63
2018-12-16T09:16:44.070Z,73.30
2018-12-16T09:19:12.841Z,80.87
2018-12-16T09:24:44.264Z,58.60
2018-12-16T09:27:17.774Z,60.47
2018-12-16T09:29:51.845Z,72.13
2018-12-16T09:32:23.334Z,71.93
2018-12-16T09:34:54.121Z,69.80
2018-12-16T09:37:24.822Z,77.70
2018-12-16T09:42:56.097Z,95.03
2018-12-16T09:45:30.147Z,87.53
2018-12-16T09:48:04.209Z,90.73
2018-12-16T09:50:35.298Z,71.33
2018-12-16T09:53:05.710Z,84.17
2018-12-16T09:55:39.126Z,88.17
2018-12-16T10:01:18.308Z,89.83
2018-12-16T10:03:52.473Z,90.43
2018-12-16T10:12:21.702Z,79.07
2018-12-16T10:15:08.377Z,81.17
2018-12-16T10:17:35.909Z,81.07
2018-12-16T10:20:13.566Z,70.57
2018-12-16T10:22:44.323Z,69.13
2018-12-16T10:25:15.053Z,84.67
2018-12-16T10:27:48.660Z,94.70
2018-12-16T10:30:21.815Z,76.03
2018-12-16T10:32:55.192Z,79.30
2018-12-16T10:35:26.212Z,77.17
2018-12-16T10:38:02.072Z,84.63
2018-12-16T10:40:31.114Z,71.53
2018-12-16T10:43:00.472Z,87.90
2018-12-16T10:45:31.733Z,71.47
2018-12-16T10:48:09.748Z,77.07
2018-12-16T10:50:47.276Z,86.63
2018-12-16T10:53:18.289Z,93.17
2018-12-16T10:55:48.890Z,86.60
2018-12-16T10:58:19.790Z,100.60
2018-12-16T11:00:59.814Z,97.40
2018-12-16T11:03:31.084Z,83.67
2018-12-16T11:06:04.609Z,94.57
2018-12-16T11:08:39.862Z,97.97
2018-12-16T11:11:17.697Z,102.53
2018-12-16T11:16:45.649Z,90.67
2018-12-16T11:21:55.952Z,63.47
2018-12-16T11:24:38.037Z,59.03
2018-12-16T11:30:08.735Z,61.20
2018-12-16T11:32:59.690Z,50.77
2018-12-16T11:35:31.413Z,48.50
2018-12-16T11:38:02.100Z,54.87
2018-12-16T11:40:36.605Z,49.90
2018-12-16T11:43:07.188Z,47.23
2018-12-16T11:45:42.538Z,51.40
2018-12-16T11:48:17.333Z,44.50
2018-12-16T11:50:51.053Z,49.73
2018-12-16T11:53:21.756Z,40.63
2018-12-16T11:55:52.431Z,38.23
2018-12-16T11:58:23.492Z,44.23
2018-12-16T12:01:08.050Z,39.70
2018-12-16T12:03:41.857Z,50.00
2018-12-16T12:06:15.548Z,45.90
2018-12-16T12:14:36.922Z,42.60
2018-12-16T12:17:08.489Z,45.67
2018-12-16T12:19:38.268Z,49.53
2018-12-16T12:22:07.322Z,46.33
2018-12-16T12:27:18.357Z,47.10
2018-12-16T12:29:54.146Z,58.13
2018-12-16T12:32:25.026Z,72.30
2018-12-16T12:34:56.118Z,86.20
2018-12-16T12:37:30.351Z,86.27
2018-12-16T12:40:05.261Z,66.90
2018-12-16T12:42:36.329Z,78.90
2018-12-16T12:45:07.407Z,61.70
2018-12-16T12:47:40.604Z,91.50
2018-12-16T12:50:15.974Z,82.50
2018-12-16T12:52:49.661Z,70.80
2018-12-16T12:55:26.883Z,66.80
2018-12-16T13:00:59.366Z,71.70
2018-12-16T13:03:40.542Z,105.90
2018-12-16T13:06:14.535Z,76.27
2018-12-16T13:08:56.827Z,112.87
2018-12-16T13:11:30.655Z,121.23
2018-12-16T13:14:04.257Z,104.03
2018-12-16T13:16:34.757Z,121.53
2018-12-16T13:19:12.279Z,121.40
2018-12-16T13:24:33.896Z,115.53
2018-12-16T13:27:07.188Z,81.50
2018-12-16T13:29:51.331Z,99.17
2018-12-16T13:32:30.089Z,98.60
2018-12-16T13:35:04.313Z,75.03
2018-12-16T13:43:29.949Z,99.47
2018-12-16T13:46:00.325Z,124.97
2018-12-16T13:48:32.130Z,194.67
2018-12-16T13:51:03.213Z,125.27
2018-12-16T13:53:34.638Z,230.87
2018-12-16T13:56:05.679Z,285.23
2018-12-16T13:58:39.051Z,247.77
2018-12-16T14:01:14.570Z,143.63
2018-12-16T14:03:45.658Z,188.10
2018-12-16T14:06:16.129Z,184.80
2018-12-16T14:11:42.814Z,89.10
2018-12-16T14:14:17.160Z,88.07
2018-12-16T14:16:48.235Z,155.47
2018-12-16T14:19:18.917Z,321.47
2018-12-16T14:21:48.197Z,298.67
2018-12-16T14:24:16.967Z,250.70
2018-12-16T14:26:50.232Z,134.37
2018-12-16T14:29:28.518Z,134.73
2018-12-16T14:32:10.026Z,163.27
2018-12-16T14:34:40.885Z,266.77
2018-12-16T14:37:08.329Z,246.07
2018-12-16T14:39:35.807Z,91.55
2018-12-16T14:42:03.313Z,221.80
2018-12-16T14:44:36.661Z,242.72
2018-12-16T14:47:10.224Z,273.80
2018-12-16T14:49:54.233Z,238.40
2018-12-16T14:52:25.557Z,342.90
2018-12-16T14:54:56.842Z,375.00
2018-12-16T14:57:30.067Z,222.93
2018-12-16T15:00:14.740Z,274.40
2018-12-16T15:02:56.256Z,203.47
2018-12-16T15:05:36.541Z,199.20
2018-12-16T15:08:07.548Z,303.10
2018-12-16T15:10:40.978Z,225.13
2018-12-16T15:13:08.421Z,230.97
2018-12-16T15:15:57.587Z,136.90
2018-12-16T15:18:31.642Z,340.87
2018-12-16T15:20:59.117Z,170.53
2018-12-16T15:23:26.594Z,337.32
2018-12-16T15:26:02.182Z,288.63
2018-12-16T15:28:33.079Z,263.57
2018-12-16T15:31:15.031Z,421.33
2018-12-16T15:36:47.281Z,448.37
2018-12-16T15:39:14.728Z,215.30
2018-12-16T15:41:42.202Z,245.37
2018-12-16T15:44:09.651Z,302.90
2018-12-16T15:46:40.608Z,259.48
2018-12-16T15:49:15.109Z,253.00
2018-12-16T15:54:59.190Z,265.33
2018-12-16T15:57:33.203Z,285.30
2018-12-16T16:00:07.405Z,326.13
2018-12-16T16:02:41.386Z,333.90
2018-12-16T16:05:12.039Z,299.33
2018-12-16T16:07:42.434Z,468.37
2018-12-16T16:10:13.084Z,486.60
2018-12-16T16:12:43.780Z,584.60
2018-12-16T16:15:14.616Z,456.90
2018-12-16T16:17:44.032Z,449.17
2018-12-16T16:20:15.337Z,266.60
2018-12-16T16:22:48.610Z,314.40
2018-12-16T16:25:17.777Z,346.37
2018-12-16T16:27:49.229Z,215.30
2018-12-16T16:30:19.864Z,186.47
2018-12-16T16:32:51.893Z,207.57
2018-12-16T16:35:22.323Z,212.27
2018-12-16T16:40:54.105Z,163.70
2018-12-16T16:48:37.090Z,152.97
2018-12-16T16:51:07.638Z,264.50
2018-12-16T16:53:36.941Z,240.70
2018-12-16T16:56:10.458Z,311.67
2018-12-16T16:58:43.984Z,314.17
2018-12-16T17:01:17.522Z,333.80
2018-12-16T17:12:33.687Z,457.87
2018-12-16T17:20:50.681Z,438.40
2018-12-16T17:32:00.362Z,317.17
2018-12-16T17:34:35.705Z,408.40
2018-12-16T17:37:06.543Z,374.13
2018-12-16T17:42:32.846Z,449.40
2018-12-16T17:45:03.811Z,430.15
2018-12-16T17:50:07.616Z,335.53
2018-12-16T17:53:00.837Z,253.50
2018-12-16T17:55:42.290Z,360.77
2018-12-16T18:01:06.439Z,307.70
2018-12-16T18:18:00.765Z,394.80
2018-12-16T18:20:34.195Z,331.10
2018-12-16T18:34:49.919Z,212.37
2018-12-16T18:40:16.317Z,173.63
2018-12-16T18:48:36.050Z,279.67
2018-12-16T19:03:52.711Z,174.90
2018-12-16T19:06:36.527Z,146.77
2018-12-16T19:12:03.889Z,190.03
2018-12-16T19:14:35.161Z,207.13
2018-12-16T19:20:01.688Z,196.83
2018-12-16T19:31:12.656Z,234.17
2018-12-16T19:33:55.076Z,173.20
2018-12-16T19:45:08.361Z,165.60
2018-12-16T20:05:15.614Z,140.37
2018-12-16T20:25:08.978Z,225.77
2018-12-16T20:27:37.711Z,214.97
2018-12-16T20:38:54.300Z,230.90
2018-12-16T20:44:29.463Z,202.50
2018-12-16T20:58:38.286Z,247.40
2018-12-16T21:18:36.590Z,286.93
2018-12-16T21:21:07.612Z,240.83
2018-12-16T21:23:36.935Z,608.30
2018-12-16T21:28:59.547Z,278.00
2018-12-16T21:31:35.135Z,337.17
2018-12-16T21:51:27.479Z,216.40
2018-12-16T22:08:23.368Z,218.57
2018-12-16T22:10:58.271Z,233.50
2018-12-16T22:13:28.907Z,210.43
2018-12-16T22:16:04.172Z,227.60
2018-12-16T22:24:44.702Z,203.80
2018-12-16T22:36:05.450Z,215.80
2018-12-16T22:44:31.670Z,164.03
2018-12-16T22:47:04.621Z,151.03
2018-12-16T22:55:20.840Z,173.73
2018-12-16T22:57:56.293Z,252.13
2018-12-16T23:03:49.353Z,161.87
2018-12-16T23:06:21.617Z,164.77
2018-12-16T23:08:54.989Z,194.80
2018-12-16T23:14:20.897Z,150.10
2018-12-16T23:25:37.154Z,88.87
2018-12-16T23:33:54.358Z,110.93
2018-12-16T23:36:23.632Z,105.40
2018-12-16T23:38:56.987Z,100.93
2018-12-16T23:44:30.141Z,97.03
2018-12-16T23:49:54.519Z,79.00
